sensor_id;sensor_type;location;lat;lon;timestamp;temperature;humidity
23827;DHT22;12094;50.822;4.376;2023-06-14T00:02:03;23.50;64.10
23827;DHT22;12094;50.822;4.376;2023-06-14T00:04:31;23.40;64.00
23827;DHT22;12094;50.822;4.376;2023-06-14T00:06:59;23.30;64.20
23827;DHT22;12094;50.822;4.376;2023-06-14T00:09:26;23.20;65.10
23827;DHT22;12094;50.822;4.376;2023-06-14T00:12:02;23.20;64.50
23827;DHT22;12094;50.822;4.376;2023-06-14T00:14:32;23.10;64.80
23827;DHT22;12094;50.822;4.376;2023-06-14T00:16:59;23.10;65.00
23827;DHT22;12094;50.822;4.376;2023-06-14T00:19:29;23.00;65.30
23827;DHT22;12094;50.822;4.376;2023-06-14T00:22:00;22.90;65.40
23827;DHT22;12094;50.822;4.376;2023-06-14T00:24:31;22.90;65.40
23827;DHT22;12094;50.822;4.376;2023-06-14T00:26:58;23.00;65.40
23827;DHT22;12094;50.822;4.376;2023-06-14T00:29:25;23.00;65.30
23827;DHT22;12094;50.822;4.376;2023-06-14T00:31:52;22.80;65.60
23827;DHT22;12094;50.822;4.376;2023-06-14T00:34:19;23.00;65.50
23827;DHT22;12094;50.822;4.376;2023-06-14T00:36:47;22.90;65.70
23827;DHT22;12094;50.822;4.376;2023-06-14T00:39:14;22.80;66.00
23827;DHT22;12094;50.822;4.376;2023-06-14T00:41:41;22.80;66.20
23827;DHT22;12094;50.822;4.376;2023-06-14T00:44:10;22.80;66.40
23827;DHT22;12094;50.822;4.376;2023-06-14T00:46:38;22.80;66.40
23827;DHT22;12094;50.822;4.376;2023-06-14T00:49:08;22.70;67.30
23827;DHT22;12094;50.822;4.376;2023-06-14T00:51:41;22.60;66.90
23827;DHT22;12094;50.822;4.376;2023-06-14T00:54:11;22.70;66.80
23827;DHT22;12094;50.822;4.376;2023-06-14T00:56:47;22.60;66.90
23827;DHT22;12094;50.822;4.376;2023-06-14T00:59:15;22.60;67.40
23827;DHT22;12094;50.822;4.376;2023-06-14T01:01:44;22.60;67.40
23827;DHT22;12094;50.822;4.376;2023-06-14T01:04:11;22.50;67.60
23827;DHT22;12094;50.822;4.376;2023-06-14T01:09:21;22.50;67.90
23827;DHT22;12094;50.822;4.376;2023-06-14T01:11:59;22.40;68.10
23827;DHT22;12094;50.822;4.376;2023-06-14T01:14:31;22.40;68.20
23827;DHT22;12094;50.822;4.376;2023-06-14T01:17:02;22.30;68.30
23827;DHT22;12094;50.822;4.376;2023-06-14T01:19:30;22.30;68.40
23827;DHT22;12094;50.822;4.376;2023-06-14T01:22:02;22.40;68.40
23827;DHT22;12094;50.822;4.376;2023-06-14T01:24:29;22.30;68.70
23827;DHT22;12094;50.822;4.376;2023-06-14T01:27:03;22.30;68.70
23827;DHT22;12094;50.822;4.376;2023-06-14T01:29:31;22.30;68.90
23827;DHT22;12094;50.822;4.376;2023-06-14T01:32:00;22.20;69.00
23827;DHT22;12094;50.822;4.376;2023-06-14T01:34:30;22.20;69.00
23827;DHT22;12094;50.822;4.376;2023-06-14T01:36:58;22.20;69.40
23827;DHT22;12094;50.822;4.376;2023-06-14T01:39:27;22.20;69.50
23827;DHT22;12094;50.822;4.376;2023-06-14T01:41:58;22.10;69.50
23827;DHT22;12094;50.822;4.376;2023-06-14T01:44:28;22.10;69.70
23827;DHT22;12094;50.822;4.376;2023-06-14T01:50:15;21.90;70.30
23827;DHT22;12094;50.822;4.376;2023-06-14T01:53:08;21.90;70.50
23827;DHT22;12094;50.822;4.376;2023-06-14T01:55:57;21.90;70.60
23827;DHT22;12094;50.822;4.376;2023-06-14T01:58:34;21.80;70.90
23827;DHT22;12094;50.822;4.376;2023-06-14T02:01:16;21.80;71.10
23827;DHT22;12094;50.822;4.376;2023-06-14T02:03:47;21.80;71.20
23827;DHT22;12094;50.822;4.376;2023-06-14T02:06:19;21.70;72.40
23827;DHT22;12094;50.822;4.376;2023-06-14T02:08:48;21.70;71.70
23827;DHT22;12094;50.822;4.376;2023-06-14T02:11:18;21.70;71.70
23827;DHT22;12094;50.822;4.376;2023-06-14T02:13:45;21.60;71.90
23827;DHT22;12094;50.822;4.376;2023-06-14T02:16:16;21.50;72.40
23827;DHT22;12094;50.822;4.376;2023-06-14T02:18:46;21.50;72.60
23827;DHT22;12094;50.822;4.376;2023-06-14T02:21:13;21.40;72.80
23827;DHT22;12094;50.822;4.376;2023-06-14T02:23:42;21.40;72.90
23827;DHT22;12094;50.822;4.376;2023-06-14T02:26:21;21.40;73.20
23827;DHT22;12094;50.822;4.376;2023-06-14T02:28:50;21.30;73.30
23827;DHT22;12094;50.822;4.376;2023-06-14T02:31:19;21.50;73.20
23827;DHT22;12094;50.822;4.376;2023-06-14T02:33:48;21.50;73.10
23827;DHT22;12094;50.822;4.376;2023-06-14T02:36:20;21.30;73.60
23827;DHT22;12094;50.822;4.376;2023-06-14T02:38:48;21.20;74.80
23827;DHT22;12094;50.822;4.376;2023-06-14T02:41:18;21.20;74.30
23827;DHT22;12094;50.822;4.376;2023-06-14T02:43:45;21.10;74.30
23827;DHT22;12094;50.822;4.376;2023-06-14T02:46:13;21.20;74.30
23827;DHT22;12094;50.822;4.376;2023-06-14T02:48:42;21.10;74.50
23827;DHT22;12094;50.822;4.376;2023-06-14T02:51:10;21.10;74.80
23827;DHT22;12094;50.822;4.376;2023-06-14T02:53:38;21.10;75.60
23827;DHT22;12094;50.822;4.376;2023-06-14T02:56:05;21.00;75.10
23827;DHT22;12094;50.822;4.376;2023-06-14T02:58:36;21.00;75.30
23827;DHT22;12094;50.822;4.376;2023-06-14T03:01:04;21.00;75.30
23827;DHT22;12094;50.822;4.376;2023-06-14T03:03:34;21.00;76.60
23827;DHT22;12094;50.822;4.376;2023-06-14T03:06:04;20.90;76.10
23827;DHT22;12094;50.822;4.376;2023-06-14T03:08:35;20.80;76.40
23827;DHT22;12094;50.822;4.376;2023-06-14T03:11:12;20.80;76.60
23827;DHT22;12094;50.822;4.376;2023-06-14T03:13:40;20.80;77.00
23827;DHT22;12094;50.822;4.376;2023-06-14T03:16:08;20.70;77.20
23827;DHT22;12094;50.822;4.376;2023-06-14T03:18:38;20.60;77.50
23827;DHT22;12094;50.822;4.376;2023-06-14T03:21:09;20.60;77.80
23827;DHT22;12094;50.822;4.376;2023-06-14T03:23:43;20.50;78.00
23827;DHT22;12094;50.822;4.376;2023-06-14T03:26:11;20.60;78.20
23827;DHT22;12094;50.822;4.376;2023-06-14T03:28:48;20.50;78.30
23827;DHT22;12094;50.822;4.376;2023-06-14T03:31:19;20.50;78.50
23827;DHT22;12094;50.822;4.376;2023-06-14T03:33:48;20.40;78.80
23827;DHT22;12094;50.822;4.376;2023-06-14T03:36:17;20.40;79.20
23827;DHT22;12094;50.822;4.376;2023-06-14T03:38:44;20.30;79.50
23827;DHT22;12094;50.822;4.376;2023-06-14T03:41:14;20.30;79.80
23827;DHT22;12094;50.822;4.376;2023-06-14T03:43:44;20.30;80.10
23827;DHT22;12094;50.822;4.376;2023-06-14T03:46:12;20.30;80.10
23827;DHT22;12094;50.822;4.376;2023-06-14T03:48:40;20.30;80.20
23827;DHT22;12094;50.822;4.376;2023-06-14T03:51:09;20.30;80.50
23827;DHT22;12094;50.822;4.376;2023-06-14T03:53:37;20.20;81.60
23827;DHT22;12094;50.822;4.376;2023-06-14T03:56:23;20.30;80.80
23827;DHT22;12094;50.822;4.376;2023-06-14T03:58:52;20.20;80.70
23827;DHT22;12094;50.822;4.376;2023-06-14T04:01:25;20.10;81.30
23827;DHT22;12094;50.822;4.376;2023-06-14T04:04:00;20.00;82.00
23827;DHT22;12094;50.822;4.376;2023-06-14T04:06:36;19.90;82.90
23827;DHT22;12094;50.822;4.376;2023-06-14T04:09:04;19.90;83.20
23827;DHT22;12094;50.822;4.376;2023-06-14T04:11:33;19.90;83.00
23827;DHT22;12094;50.822;4.376;2023-06-14T04:14:02;19.90;83.40
23827;DHT22;12094;50.822;4.376;2023-06-14T04:16:31;19.80;83.80
23827;DHT22;12094;50.822;4.376;2023-06-14T04:19:00;20.00;83.50
23827;DHT22;12094;50.822;4.376;2023-06-14T04:21:30;20.00;83.60
23827;DHT22;12094;50.822;4.376;2023-06-14T04:24:03;19.90;83.70
23827;DHT22;12094;50.822;4.376;2023-06-14T04:26:33;19.90;83.90
23827;DHT22;12094;50.822;4.376;2023-06-14T04:29:02;19.90;84.30
23827;DHT22;12094;50.822;4.376;2023-06-14T04:31:35;20.00;83.70
23827;DHT22;12094;50.822;4.376;2023-06-14T04:34:11;20.00;83.70
23827;DHT22;12094;50.822;4.376;2023-06-14T04:36:50;20.00;84.00
23827;DHT22;12094;50.822;4.376;2023-06-14T04:39:27;20.00;83.80
23827;DHT22;12094;50.822;4.376;2023-06-14T04:41:55;20.00;83.50
23827;DHT22;12094;50.822;4.376;2023-06-14T04:44:25;20.00;83.80
23827;DHT22;12094;50.822;4.376;2023-06-14T04:47:04;19.90;84.10
23827;DHT22;12094;50.822;4.376;2023-06-14T04:49:36;20.00;84.20
23827;DHT22;12094;50.822;4.376;2023-06-14T04:52:08;19.90;84.50
23827;DHT22;12094;50.822;4.376;2023-06-14T04:54:47;20.10;84.10
23827;DHT22;12094;50.822;4.376;2023-06-14T04:57:17;20.10;84.00
23827;DHT22;12094;50.822;4.376;2023-06-14T04:59:48;20.00;84.30
23827;DHT22;12094;50.822;4.376;2023-06-14T05:02:26;20.00;84.50
23827;DHT22;12094;50.822;4.376;2023-06-14T05:04:57;20.00;84.40
23827;DHT22;12094;50.822;4.376;2023-06-14T05:07:27;20.00;84.50
23827;DHT22;12094;50.822;4.376;2023-06-14T05:09:54;20.10;84.80
23827;DHT22;12094;50.822;4.376;2023-06-14T05:12:23;20.20;84.50
23827;DHT22;12094;50.822;4.376;2023-06-14T05:14:53;20.30;84.20
23827;DHT22;12094;50.822;4.376;2023-06-14T05:17:22;20.40;84.40
23827;DHT22;12094;50.822;4.376;2023-06-14T05:19:53;20.40;84.30
23827;DHT22;12094;50.822;4.376;2023-06-14T05:22:20;20.40;83.90
23827;DHT22;12094;50.822;4.376;2023-06-14T05:24:50;20.50;84.00
23827;DHT22;12094;50.822;4.376;2023-06-14T05:27:19;20.60;84.00
23827;DHT22;12094;50.822;4.376;2023-06-14T05:29:46;20.60;83.40
23827;DHT22;12094;50.822;4.376;2023-06-14T05:32:13;20.60;83.10
23827;DHT22;12094;50.822;4.376;2023-06-14T05:34:43;20.40;84.00
23827;DHT22;12094;50.822;4.376;2023-06-14T05:37:15;20.40;84.20
23827;DHT22;12094;50.822;4.376;2023-06-14T05:39:43;20.40;83.90
23827;DHT22;12094;50.822;4.376;2023-06-14T05:42:13;20.50;83.90
23827;DHT22;12094;50.822;4.376;2023-06-14T05:44:41;20.60;83.80
23827;DHT22;12094;50.822;4.376;2023-06-14T05:47:10;20.80;83.20
23827;DHT22;12094;50.822;4.376;2023-06-14T05:49:37;20.80;83.30
23827;DHT22;12094;50.822;4.376;2023-06-14T05:52:04;20.80;83.40
23827;DHT22;12094;50.822;4.376;2023-06-14T05:54:32;21.00;83.00
23827;DHT22;12094;50.822;4.376;2023-06-14T05:57:00;21.00;82.50
23827;DHT22;12094;50.822;4.376;2023-06-14T05:59:29;21.10;82.30
23827;DHT22;12094;50.822;4.376;2023-06-14T06:01:57;21.10;82.40
23827;DHT22;12094;50.822;4.376;2023-06-14T06:04:26;21.20;83.20
23827;DHT22;12094;50.822;4.376;2023-06-14T06:06:57;21.30;82.00
23827;DHT22;12094;50.822;4.376;2023-06-14T06:09:39;21.30;81.70
23827;DHT22;12094;50.822;4.376;2023-06-14T06:12:10;21.50;81.10
23827;DHT22;12094;50.822;4.376;2023-06-14T06:14:42;21.50;81.00
23827;DHT22;12094;50.822;4.376;2023-06-14T06:17:12;21.60;80.50
23827;DHT22;12094;50.822;4.376;2023-06-14T06:19:43;21.70;80.80
23827;DHT22;12094;50.822;4.376;2023-06-14T06:22:13;21.80;80.50
23827;DHT22;12094;50.822;4.376;2023-06-14T06:24:41;21.90;79.90
23827;DHT22;12094;50.822;4.376;2023-06-14T06:27:17;22.00;79.80
23827;DHT22;12094;50.822;4.376;2023-06-14T06:29:46;22.10;79.30
23827;DHT22;12094;50.822;4.376;2023-06-14T06:32:19;22.20;79.20
23827;DHT22;12094;50.822;4.376;2023-06-14T06:35:12;22.30;79.20
23827;DHT22;12094;50.822;4.376;2023-06-14T06:37:46;22.20;79.00
23827;DHT22;12094;50.822;4.376;2023-06-14T06:40:19;22.30;78.90
23827;DHT22;12094;50.822;4.376;2023-06-14T06:42:47;22.20;79.20
23827;DHT22;12094;50.822;4.376;2023-06-14T06:45:22;22.20;79.40
23827;DHT22;12094;50.822;4.376;2023-06-14T06:47:53;22.50;78.90
23827;DHT22;12094;50.822;4.376;2023-06-14T06:50:24;22.60;78.40
23827;DHT22;12094;50.822;4.376;2023-06-14T06:57:06;22.80;77.60
23827;DHT22;12094;50.822;4.376;2023-06-14T06:59:44;22.90;77.20
23827;DHT22;12094;50.822;4.376;2023-06-14T07:02:12;23.00;76.70
23827;DHT22;12094;50.822;4.376;2023-06-14T07:08:20;23.10;75.40
23827;DHT22;12094;50.822;4.376;2023-06-14T07:10:53;23.20;74.40
23827;DHT22;12094;50.822;4.376;2023-06-14T07:13:25;23.20;74.50
23827;DHT22;12094;50.822;4.376;2023-06-14T07:15:59;23.20;74.70
23827;DHT22;12094;50.822;4.376;2023-06-14T07:18:33;23.30;74.50
23827;DHT22;12094;50.822;4.376;2023-06-14T07:21:02;23.40;74.80
23827;DHT22;12094;50.822;4.376;2023-06-14T07:23:34;23.50;74.00
23827;DHT22;12094;50.822;4.376;2023-06-14T07:26:01;23.60;73.80
23827;DHT22;12094;50.822;4.376;2023-06-14T07:28:31;23.80;72.90
23827;DHT22;12094;50.822;4.376;2023-06-14T07:31:00;23.90;72.20
23827;DHT22;12094;50.822;4.376;2023-06-14T07:33:30;23.90;72.40
23827;DHT22;12094;50.822;4.376;2023-06-14T07:36:04;24.00;72.50
23827;DHT22;12094;50.822;4.376;2023-06-14T07:38:31;24.10;72.70
23827;DHT22;12094;50.822;4.376;2023-06-14T07:41:04;24.20;72.70
23827;DHT22;12094;50.822;4.376;2023-06-14T07:43:34;24.30;72.00
23827;DHT22;12094;50.822;4.376;2023-06-14T07:46:01;24.50;72.00
23827;DHT22;12094;50.822;4.376;2023-06-14T07:48:35;24.60;72.40
23827;DHT22;12094;50.822;4.376;2023-06-14T07:51:08;24.50;71.90
23827;DHT22;12094;50.822;4.376;2023-06-14T07:53:46;24.60;71.70
23827;DHT22;12094;50.822;4.376;2023-06-14T07:56:14;24.70;70.40
23827;DHT22;12094;50.822;4.376;2023-06-14T07:58:42;24.70;69.60
23827;DHT22;12094;50.822;4.376;2023-06-14T08:01:09;24.70;69.30
23827;DHT22;12094;50.822;4.376;2023-06-14T08:03:37;24.80;69.10
23827;DHT22;12094;50.822;4.376;2023-06-14T08:06:06;24.80;70.10
23827;DHT22;12094;50.822;4.376;2023-06-14T08:08:38;25.00;69.60
23827;DHT22;12094;50.822;4.376;2023-06-14T08:11:06;25.20;69.10
23827;DHT22;12094;50.822;4.376;2023-06-14T08:13:38;25.30;68.90
23827;DHT22;12094;50.822;4.376;2023-06-14T08:16:05;25.40;68.30
23827;DHT22;12094;50.822;4.376;2023-06-14T08:18:36;25.60;67.60
23827;DHT22;12094;50.822;4.376;2023-06-14T08:21:06;25.60;67.50
23827;DHT22;12094;50.822;4.376;2023-06-14T08:23:42;25.70;67.30
23827;DHT22;12094;50.822;4.376;2023-06-14T08:26:12;25.80;66.80
23827;DHT22;12094;50.822;4.376;2023-06-14T08:28:40;25.90;67.00
23827;DHT22;12094;50.822;4.376;2023-06-14T08:31:11;26.10;66.60
23827;DHT22;12094;50.822;4.376;2023-06-14T08:33:48;26.00;67.20
23827;DHT22;12094;50.822;4.376;2023-06-14T08:36:16;26.10;67.10
23827;DHT22;12094;50.822;4.376;2023-06-14T08:38:43;26.10;66.30
23827;DHT22;12094;50.822;4.376;2023-06-14T08:41:12;26.10;66.80
23827;DHT22;12094;50.822;4.376;2023-06-14T08:43:43;26.20;66.60
23827;DHT22;12094;50.822;4.376;2023-06-14T08:46:10;26.20;66.80
23827;DHT22;12094;50.822;4.376;2023-06-14T08:48:48;26.20;67.10
23827;DHT22;12094;50.822;4.376;2023-06-14T08:51:19;26.20;67.90
23827;DHT22;12094;50.822;4.376;2023-06-14T08:53:55;26.10;68.00
23827;DHT22;12094;50.822;4.376;2023-06-14T08:56:29;26.10;68.10
23827;DHT22;12094;50.822;4.376;2023-06-14T08:58:58;26.10;67.50
23827;DHT22;12094;50.822;4.376;2023-06-14T09:01:35;26.10;67.70
23827;DHT22;12094;50.822;4.376;2023-06-14T09:04:08;26.10;66.60
23827;DHT22;12094;50.822;4.376;2023-06-14T09:06:40;26.00;67.40
23827;DHT22;12094;50.822;4.376;2023-06-14T09:09:07;26.10;68.20
23827;DHT22;12094;50.822;4.376;2023-06-14T09:11:37;26.10;67.90
23827;DHT22;12094;50.822;4.376;2023-06-14T09:14:06;26.10;67.60
23827;DHT22;12094;50.822;4.376;2023-06-14T09:16:35;26.20;68.50
23827;DHT22;12094;50.822;4.376;2023-06-14T09:19:03;26.30;67.20
23827;DHT22;12094;50.822;4.376;2023-06-14T09:21:35;26.10;68.00
23827;DHT22;12094;50.822;4.376;2023-06-14T09:24:24;26.10;69.40
23827;DHT22;12094;50.822;4.376;2023-06-14T09:26:54;26.00;68.90
23827;DHT22;12094;50.822;4.376;2023-06-14T09:29:28;26.10;68.30
23827;DHT22;12094;50.822;4.376;2023-06-14T09:31:55;26.30;67.00
23827;DHT22;12094;50.822;4.376;2023-06-14T09:34:32;26.30;67.40
23827;DHT22;12094;50.822;4.376;2023-06-14T09:37:12;26.30;66.80
23827;DHT22;12094;50.822;4.376;2023-06-14T09:39:50;26.30;66.80
23827;DHT22;12094;50.822;4.376;2023-06-14T09:42:22;26.30;67.00
23827;DHT22;12094;50.822;4.376;2023-06-14T09:44:56;26.40;66.60
23827;DHT22;12094;50.822;4.376;2023-06-14T09:47:24;26.50;64.20
23827;DHT22;12094;50.822;4.376;2023-06-14T09:49:55;26.40;64.90
23827;DHT22;12094;50.822;4.376;2023-06-14T09:52:27;26.30;64.90
23827;DHT22;12094;50.822;4.376;2023-06-14T09:54:59;26.30;66.30
23827;DHT22;12094;50.822;4.376;2023-06-14T09:57:31;26.30;65.00
23827;DHT22;12094;50.822;4.376;2023-06-14T10:00:03;26.20;65.60
23827;DHT22;12094;50.822;4.376;2023-06-14T10:02:39;26.40;65.10
23827;DHT22;12094;50.822;4.376;2023-06-14T10:05:14;26.30;64.80
23827;DHT22;12094;50.822;4.376;2023-06-14T10:07:43;26.30;63.90
23827;DHT22;12094;50.822;4.376;2023-06-14T10:10:15;26.40;64.30
23827;DHT22;12094;50.822;4.376;2023-06-14T10:12:45;26.50;63.10
23827;DHT22;12094;50.822;4.376;2023-06-14T10:15:47;26.50;62.50
23827;DHT22;12094;50.822;4.376;2023-06-14T10:21:25;26.90;62.60
23827;DHT22;12094;50.822;4.376;2023-06-14T10:23:56;26.80;60.70
23827;DHT22;12094;50.822;4.376;2023-06-14T10:26:31;26.70;59.90
23827;DHT22;12094;50.822;4.376;2023-06-14T10:29:08;26.80;62.10
23827;DHT22;12094;50.822;4.376;2023-06-14T10:31:59;27.00;63.30
23827;DHT22;12094;50.822;4.376;2023-06-14T10:35:00;26.70;64.30
23827;DHT22;12094;50.822;4.376;2023-06-14T10:37:45;26.80;64.20
23827;DHT22;12094;50.822;4.376;2023-06-14T10:40:30;27.00;63.50
23827;DHT22;12094;50.822;4.376;2023-06-14T10:43:01;27.00;62.60
23827;DHT22;12094;50.822;4.376;2023-06-14T10:48:44;27.10;62.30
23827;DHT22;12094;50.822;4.376;2023-06-14T10:51:24;27.10;61.80
23827;DHT22;12094;50.822;4.376;2023-06-14T10:54:00;27.20;61.30
23827;DHT22;12094;50.822;4.376;2023-06-14T10:56:35;27.30;59.70
23827;DHT22;12094;50.822;4.376;2023-06-14T10:59:04;27.20;59.50
23827;DHT22;12094;50.822;4.376;2023-06-14T11:01:40;27.10;60.00
23827;DHT22;12094;50.822;4.376;2023-06-14T11:07:52;27.40;59.00
23827;DHT22;12094;50.822;4.376;2023-06-14T11:10:43;27.40;58.50
23827;DHT22;12094;50.822;4.376;2023-06-14T11:13:18;27.60;57.70
23827;DHT22;12094;50.822;4.376;2023-06-14T11:15:47;27.80;57.50
23827;DHT22;12094;50.822;4.376;2023-06-14T11:18:19;27.80;57.50
23827;DHT22;12094;50.822;4.376;2023-06-14T11:20:54;27.90;57.50
23827;DHT22;12094;50.822;4.376;2023-06-14T11:23:51;28.10;57.30
23827;DHT22;12094;50.822;4.376;2023-06-14T11:26:28;28.40;56.80
23827;DHT22;12094;50.822;4.376;2023-06-14T11:29:00;28.60;56.10
23827;DHT22;12094;50.822;4.376;2023-06-14T11:31:33;29.00;55.60
23827;DHT22;12094;50.822;4.376;2023-06-14T11:34:01;29.30;54.70
23827;DHT22;12094;50.822;4.376;2023-06-14T11:36:33;29.50;54.20
23827;DHT22;12094;50.822;4.376;2023-06-14T11:39:07;29.70;54.10
23827;DHT22;12094;50.822;4.376;2023-06-14T11:41:50;29.90;54.10
23827;DHT22;12094;50.822;4.376;2023-06-14T11:44:28;29.60;54.30
23827;DHT22;12094;50.822;4.376;2023-06-14T11:46:56;29.70;53.70
23827;DHT22;12094;50.822;4.376;2023-06-14T11:49:35;30.10;53.00
23827;DHT22;12094;50.822;4.376;2023-06-14T11:52:04;30.10;53.30
23827;DHT22;12094;50.822;4.376;2023-06-14T11:54:35;30.60;52.80
23827;DHT22;12094;50.822;4.376;2023-06-14T11:57:04;30.90;51.80
23827;DHT22;12094;50.822;4.376;2023-06-14T11:59:40;31.00;51.30
23827;DHT22;12094;50.822;4.376;2023-06-14T12:02:08;31.30;51.20
23827;DHT22;12094;50.822;4.376;2023-06-14T12:04:40;31.50;50.20
23827;DHT22;12094;50.822;4.376;2023-06-14T12:07:19;31.40;50.30
23827;DHT22;12094;50.822;4.376;2023-06-14T12:10:19;31.50;50.30
23827;DHT22;12094;50.822;4.376;2023-06-14T12:12:48;31.70;50.50
23827;DHT22;12094;50.822;4.376;2023-06-14T12:15:16;31.60;50.20
23827;DHT22;12094;50.822;4.376;2023-06-14T12:17:44;31.00;50.70
23827;DHT22;12094;50.822;4.376;2023-06-14T12:20:14;30.30;51.60
23827;DHT22;12094;50.822;4.376;2023-06-14T12:22:58;30.70;51.60
23827;DHT22;12094;50.822;4.376;2023-06-14T12:25:32;30.90;50.70
23827;DHT22;12094;50.822;4.376;2023-06-14T12:28:04;30.80;51.00
23827;DHT22;12094;50.822;4.376;2023-06-14T12:30:33;31.20;51.10
23827;DHT22;12094;50.822;4.376;2023-06-14T12:36:39;31.20;51.00
23827;DHT22;12094;50.822;4.376;2023-06-14T12:39:26;31.70;50.20
23827;DHT22;12094;50.822;4.376;2023-06-14T12:41:55;32.30;49.30
23827;DHT22;12094;50.822;4.376;2023-06-14T12:44:24;32.50;48.30
23827;DHT22;12094;50.822;4.376;2023-06-14T12:46:51;32.40;48.00
23827;DHT22;12094;50.822;4.376;2023-06-14T12:49:22;32.40;47.70
23827;DHT22;12094;50.822;4.376;2023-06-14T12:51:49;32.50;46.80
23827;DHT22;12094;50.822;4.376;2023-06-14T12:54:20;32.70;46.80
23827;DHT22;12094;50.822;4.376;2023-06-14T12:57:07;32.90;46.40
23827;DHT22;12094;50.822;4.376;2023-06-14T12:59:37;32.80;47.40
23827;DHT22;12094;50.822;4.376;2023-06-14T13:02:15;33.10;46.20
23827;DHT22;12094;50.822;4.376;2023-06-14T13:04:44;32.90;45.80
23827;DHT22;12094;50.822;4.376;2023-06-14T13:07:12;33.00;45.80
23827;DHT22;12094;50.822;4.376;2023-06-14T13:09:40;33.30;45.60
23827;DHT22;12094;50.822;4.376;2023-06-14T13:12:09;33.40;45.20
23827;DHT22;12094;50.822;4.376;2023-06-14T13:14:41;33.60;45.60
23827;DHT22;12094;50.822;4.376;2023-06-14T13:17:12;32.40;47.20
23827;DHT22;12094;50.822;4.376;2023-06-14T13:19:40;32.60;47.00
23827;DHT22;12094;50.822;4.376;2023-06-14T13:22:10;33.30;45.80
23827;DHT22;12094;50.822;4.376;2023-06-14T13:24:39;33.80;45.00
23827;DHT22;12094;50.822;4.376;2023-06-14T13:27:08;33.90;45.20
23827;DHT22;12094;50.822;4.376;2023-06-14T13:29:35;33.40;45.40
23827;DHT22;12094;50.822;4.376;2023-06-14T13:32:04;33.10;45.70
23827;DHT22;12094;50.822;4.376;2023-06-14T13:34:35;33.20;45.50
23827;DHT22;12094;50.822;4.376;2023-06-14T13:37:03;33.10;45.60
23827;DHT22;12094;50.822;4.376;2023-06-14T13:39:38;33.20;45.00
23827;DHT22;12094;50.822;4.376;2023-06-14T13:48:27;34.20;44.40
23827;DHT22;12094;50.822;4.376;2023-06-14T13:54:36;34.70;43.50
23827;DHT22;12094;50.822;4.376;2023-06-14T13:57:08;34.60;42.60
23827;DHT22;12094;50.822;4.376;2023-06-14T13:59:54;34.30;42.90
23827;DHT22;12094;50.822;4.376;2023-06-14T14:02:43;34.60;42.50
23827;DHT22;12094;50.822;4.376;2023-06-14T14:05:10;34.60;41.80
23827;DHT22;12094;50.822;4.376;2023-06-14T14:07:43;34.70;41.70
23827;DHT22;12094;50.822;4.376;2023-06-14T14:10:10;34.70;41.40
23827;DHT22;12094;50.822;4.376;2023-06-14T14:12:41;35.00;41.10
23827;DHT22;12094;50.822;4.376;2023-06-14T14:15:12;35.40;40.60
23827;DHT22;12094;50.822;4.376;2023-06-14T14:17:41;35.50;40.50
23827;DHT22;12094;50.822;4.376;2023-06-14T14:20:13;35.60;40.00
23827;DHT22;12094;50.822;4.376;2023-06-14T14:22:45;35.70;40.20
23827;DHT22;12094;50.822;4.376;2023-06-14T14:25:13;36.20;39.60
23827;DHT22;12094;50.822;4.376;2023-06-14T14:27:47;35.50;39.40
23827;DHT22;12094;50.822;4.376;2023-06-14T14:30:34;35.80;39.20
23827;DHT22;12094;50.822;4.376;2023-06-14T14:33:06;35.80;38.60
23827;DHT22;12094;50.822;4.376;2023-06-14T14:35:40;35.50;39.00
23827;DHT22;12094;50.822;4.376;2023-06-14T14:38:15;36.20;38.40
23827;DHT22;12094;50.822;4.376;2023-06-14T14:40:48;36.30;38.70
23827;DHT22;12094;50.822;4.376;2023-06-14T14:43:16;36.50;38.10
23827;DHT22;12094;50.822;4.376;2023-06-14T14:45:47;36.80;37.60
23827;DHT22;12094;50.822;4.376;2023-06-14T14:48:14;37.10;37.80
23827;DHT22;12094;50.822;4.376;2023-06-14T14:50:46;37.10;37.80
23827;DHT22;12094;50.822;4.376;2023-06-14T14:53:17;36.70;38.10
23827;DHT22;12094;50.822;4.376;2023-06-14T14:55:53;36.80;37.80
23827;DHT22;12094;50.822;4.376;2023-06-14T14:58:23;36.80;37.70
23827;DHT22;12094;50.822;4.376;2023-06-14T15:01:16;37.50;37.00
23827;DHT22;12094;50.822;4.376;2023-06-14T15:03:46;36.70;37.20
23827;DHT22;12094;50.822;4.376;2023-06-14T15:06:17;35.70;37.90
23827;DHT22;12094;50.822;4.376;2023-06-14T15:12:19;35.50;38.60
23827;DHT22;12094;50.822;4.376;2023-06-14T15:14:53;35.20;38.20
23827;DHT22;12094;50.822;4.376;2023-06-14T15:17:31;34.70;38.80
23827;DHT22;12094;50.822;4.376;2023-06-14T15:20:03;34.40;38.70
23827;DHT22;12094;50.822;4.376;2023-06-14T15:26:17;33.40;40.20
23827;DHT22;12094;50.822;4.376;2023-06-14T15:28:44;32.60;41.10
23827;DHT22;12094;50.822;4.376;2023-06-14T15:31:14;31.70;42.40
23827;DHT22;12094;50.822;4.376;2023-06-14T15:33:44;31.20;42.80
23827;DHT22;12094;50.822;4.376;2023-06-14T15:36:39;30.90;43.20
23827;DHT22;12094;50.822;4.376;2023-06-14T15:39:14;30.70;43.60
23827;DHT22;12094;50.822;4.376;2023-06-14T15:41:45;30.30;44.20
23827;DHT22;12094;50.822;4.376;2023-06-14T15:44:14;29.50;45.80
23827;DHT22;12094;50.822;4.376;2023-06-14T15:46:47;29.30;45.90
23827;DHT22;12094;50.822;4.376;2023-06-14T15:49:40;29.20;46.10
23827;DHT22;12094;50.822;4.376;2023-06-14T15:52:21;28.90;45.90
23827;DHT22;12094;50.822;4.376;2023-06-14T15:54:53;29.00;46.30
23827;DHT22;12094;50.822;4.376;2023-06-14T15:57:25;28.90;46.00
23827;DHT22;12094;50.822;4.376;2023-06-14T16:00:03;29.00;45.80
23827;DHT22;12094;50.822;4.376;2023-06-14T16:02:44;29.00;45.90
23827;DHT22;12094;50.822;4.376;2023-06-14T16:05:13;28.80;46.40
23827;DHT22;12094;50.822;4.376;2023-06-14T16:07:44;28.90;46.30
23827;DHT22;12094;50.822;4.376;2023-06-14T16:10:12;28.90;46.10
23827;DHT22;12094;50.822;4.376;2023-06-14T16:12:42;29.10;46.20
23827;DHT22;12094;50.822;4.376;2023-06-14T16:15:13;29.20;46.00
23827;DHT22;12094;50.822;4.376;2023-06-14T16:17:45;29.20;46.00
23827;DHT22;12094;50.822;4.376;2023-06-14T16:20:16;29.20;45.80
23827;DHT22;12094;50.822;4.376;2023-06-14T16:22:46;29.20;45.30
23827;DHT22;12094;50.822;4.376;2023-06-14T16:25:16;29.20;45.50
23827;DHT22;12094;50.822;4.376;2023-06-14T16:27:43;29.30;45.50
23827;DHT22;12094;50.822;4.376;2023-06-14T16:30:12;29.30;45.50
23827;DHT22;12094;50.822;4.376;2023-06-14T16:32:43;29.40;45.40
23827;DHT22;12094;50.822;4.376;2023-06-14T16:35:11;29.50;45.60
23827;DHT22;12094;50.822;4.376;2023-06-14T16:37:40;29.80;46.10
23827;DHT22;12094;50.822;4.376;2023-06-14T16:40:27;30.00;46.00
23827;DHT22;12094;50.822;4.376;2023-06-14T16:43:05;30.80;45.50
23827;DHT22;12094;50.822;4.376;2023-06-14T16:45:37;31.30;44.80